»·PEaware :: XOJ551 KDEN-KAMA

XOJ551 :: KDEN-KAMA

FLIGHT INFORMATION

Flight Status: Arrived
Operator:
XOJET
More flights by this operator :: More flights under this callsign
Pilot: Hassan P. (16390)
Aircraft: BOMBARDIER BD-100 CHALLENGER 300
(CL30)
More flights by this aircraft type
Origin: KDEN Denver Intl
United States
Destination: KAMA Amarillo Intl
United States
More flights between these airports :: More routes between these airports
Route: +STAKR3 PYPER KENTO PNH
File this flight plan on PilotEdge
Remarks: enjoy your day
Altitude:
(Current/Filed)
31,000ft
Speed:
(Current/Filed)
479kts
Departed: 14-May-18 07:25 AM
Arrived: 14-May-18 08:20 AM
Distance/Time
Traveled:
312nm/0:55
Distance/Time
To Go:
Arrived

Flight Plot

Page will automatically refresh every two minutes.

Flight plan parsing failed; only flown route is shown


Map Options




Map Legend


Flown Route
Filed Route
Departure Airport
Arrival Airport
Navaid (VOR, NDB)
Fix

Horizontal Profiles

Position Reports

Time Latitude Longitude Heading Altitude Ground
Speed
14-May-18 07:08 39.853281 -104.669046 0 5323ft 0kts
14-May-18 07:09 39.853281 -104.669046 0 5323ft 0kts
14-May-18 07:10 39.853281 -104.669046 0 5323ft 0kts
14-May-18 07:11 39.853281 -104.669046 0 5323ft 0kts
14-May-18 07:12 39.853281 -104.669046 0 5323ft 0kts
14-May-18 07:13 39.853833 -104.669041 354 5323ft 0kts
14-May-18 07:14 39.854927 -104.667760 94 5323ft 10kts
14-May-18 07:15 39.854912 -104.665849 181 5323ft 17kts
14-May-18 07:16 39.852034 -104.664138 89 5323ft 17kts
14-May-18 07:17 39.854560 -104.662375 359 5323ft 14kts
14-May-18 07:18 39.857216 -104.662358 0 5323ft 10kts
14-May-18 07:19 39.860338 -104.662304 0 5323ft 15kts
14-May-18 07:20 39.862946 -104.662275 0 5323ft 0kts
14-May-18 07:21 39.864814 -104.662257 354 5323ft 2kts
14-May-18 07:22 39.861802 -104.663456 180 5323ft 8kts
14-May-18 07:23 39.861032 -104.661628 88 5323ft 0kts
14-May-18 07:24 39.860999 -104.660599 107 5323ft 13kts
14-May-18 07:25 39.829011 -104.661156 179 6796ft 209kts
14-May-18 07:26 39.763630 -104.639985 160 9993ft 289kts
14-May-18 07:27 39.688650 -104.605340 159 10009ft 288kts
14-May-18 07:28 39.614263 -104.574816 164 11083ft 291kts
14-May-18 07:29 39.530917 -104.549447 169 12022ft 322kts
14-May-18 07:30 39.445487 -104.529931 168 14277ft 325kts
14-May-18 07:31 39.355214 -104.509618 168 17143ft 329kts
14-May-18 07:32 39.264620 -104.489358 169 20138ft 334kts
14-May-18 07:33 39.172088 -104.468170 169 23137ft 345kts
14-May-18 07:34 39.075931 -104.443085 169 25765ft 371kts
14-May-18 07:35 38.982062 -104.417069 172 28507ft 379kts
14-May-18 07:36 38.879573 -104.388790 175 31169ft 387kts
14-May-18 07:37 38.767332 -104.358055 174 31245ft 439kts
14-May-18 07:38 38.648257 -104.305404 151 31269ft 482kts
14-May-18 07:39 38.544048 -104.199773 148 31219ft 479kts
14-May-18 07:40 38.442615 -104.091707 147 31178ft 475kts
14-May-18 07:41 38.341886 -103.983765 147 31149ft 474kts
14-May-18 07:42 38.240916 -103.875765 147 31169ft 475kts
14-May-18 07:43 38.139962 -103.768223 147 31168ft 476kts
14-May-18 07:44 38.032498 -103.677211 165 31188ft 456kts
14-May-18 07:45 37.914500 -103.620274 167 31164ft 455kts
14-May-18 07:46 37.796337 -103.566480 167 31189ft 455kts
14-May-18 07:47 37.677752 -103.513260 167 31180ft 454kts
14-May-18 07:48 37.558854 -103.460205 167 31181ft 453kts
14-May-18 07:49 37.440192 -103.407454 167 31173ft 451kts
14-May-18 07:50 37.324703 -103.356317 167 29302ft 446kts
14-May-18 07:51 37.208514 -103.305014 167 27052ft 439kts
14-May-18 07:52 37.094460 -103.254834 166 24651ft 432kts
14-May-18 07:53 36.984667 -103.206664 165 24113ft 411kts
14-May-18 07:54 36.877160 -103.159629 165 24121ft 416kts
14-May-18 07:55 36.766870 -103.111519 165 24119ft 424kts
14-May-18 07:56 36.666980 -103.029203 147 24119ft 436kts
14-May-18 07:57 36.570376 -102.938715 146 24119ft 434kts
14-May-18 07:58 36.474728 -102.848356 146 24119ft 433kts
14-May-18 07:59 36.379187 -102.758162 146 23482ft 429kts
14-May-18 08:00 36.284662 -102.669168 146 21080ft 421kts
14-May-18 08:01 36.196760 -102.586602 147 19074ft 381kts
14-May-18 08:02 36.115156 -102.510213 147 17070ft 357kts
14-May-18 08:03 36.039543 -102.439593 147 15067ft 328kts
14-May-18 08:04 35.968686 -102.373603 147 13071ft 312kts
14-May-18 08:05 35.900698 -102.310450 148 11059ft 304kts
14-May-18 08:06 35.834170 -102.248769 147 10010ft 298kts
14-May-18 08:07 35.768459 -102.187962 147 10028ft 301kts
14-May-18 08:08 35.701074 -102.125734 147 10027ft 306kts
14-May-18 08:09 35.633268 -102.063254 147 9543ft 307kts
14-May-18 08:10 35.566762 -102.002146 146 7347ft 300kts
14-May-18 08:11 35.502199 -101.942819 146 7016ft 274kts
14-May-18 08:12 35.444839 -101.890237 148 7006ft 243kts
14-May-18 08:13 35.392970 -101.842824 148 7000ft 224kts
14-May-18 08:14 35.352424 -101.790204 131 6587ft 194kts
14-May-18 08:15 35.328819 -101.728946 113 6058ft 202kts
14-May-18 08:16 35.310608 -101.666691 113 5931ft 187kts
14-May-18 08:17 35.273334 -101.653219 199 5225ft 144kts
14-May-18 08:18 35.243643 -101.683939 227 4117ft 140kts
14-May-18 08:19 35.223023 -101.710112 225 3613ft 44kts
14-May-18 08:20 35.218863 -101.711690 135 3613ft 16kts
14-May-18 08:21 35.216928 -101.709470 139 3613ft 9kts
14-May-18 08:22 35.217249 -101.709285 230 3613ft 0kts
14-May-18 08:23 35.217249 -101.709285 230 3613ft 0kts
14-May-18 08:24 35.217249 -101.709285 230 3613ft 0kts
14-May-18 08:25 35.217249 -101.709285 230 3613ft 0kts

Navigation Log

Ident Type
Flight plan parsing failed, navigation log unavailable